Time;durP1;ratioP1;P1;durP2;ratioP2;P2;SDS_P1;SDS_P2;PMS_P1;PMS_P2;Temp;Humidity;BMP_temperature;BMP_pressure;BME280_temperature;BME280_humidity;BME280_pressure;Samples;Min_cycle;Max_cycle;Signal;HPM_P1;HPM_P2
2021/03/18 00:00:51;;;;;;;3.83;2.00;;;10.20;55.70;;;;;;6151794;28;20035;-83
2021/03/18 00:03:53;;;;;;;4.20;2.13;;;10.20;55.80;;;;;;6193669;28;20455;-83
2021/03/18 00:06:54;;;;;;;3.83;2.45;;;10.20;55.80;;;;;;6177647;28;20031;-83
2021/03/18 00:09:55;;;;;;;2.97;2.08;;;10.20;55.80;;;;;;6274564;28;20086;-85
2021/03/18 00:12:57;;;;;;;3.03;2.03;;;10.20;55.80;;;;;;6262049;28;20040;-84
2021/03/18 00:15:59;;;;;;;2.47;1.60;;;10.20;55.80;;;;;;6236471;28;20038;-84
2021/03/18 00:19:00;;;;;;;3.95;2.20;;;10.20;55.80;;;;;;6253731;28;20029;-83
2021/03/18 00:22:01;;;;;;;3.55;2.05;;;10.20;55.80;;;;;;6258651;28;20458;-83
2021/03/18 00:25:04;;;;;;;3.88;2.00;;;10.20;55.80;;;;;;6273132;28;20517;-83
2021/03/18 00:28:07;;;;;;;3.70;1.88;;;10.10;55.90;;;;;;6271293;28;20021;-83
2021/03/18 00:31:08;;;;;;;4.15;2.10;;;10.10;55.90;;;;;;6271926;28;20033;-83
2021/03/18 00:34:10;;;;;;;3.78;2.13;;;10.10;55.90;;;;;;6272669;28;20410;-82
2021/03/18 00:37:11;;;;;;;4.25;2.50;;;10.10;56.00;;;;;;6254858;28;20083;-82
2021/03/18 00:40:26;;;;;;;3.90;2.53;;;10.10;56.00;;;;;;6275402;28;20032;-82
2021/03/18 00:43:28;;;;;;;5.28;2.58;;;10.10;56.10;;;;;;6277316;28;20593;-82
2021/03/18 00:46:30;;;;;;;4.93;2.90;;;10.10;56.00;;;;;;6305200;28;20113;-84
2021/03/18 00:49:32;;;;;;;3.65;2.10;;;10.10;56.10;;;;;;6280850;28;20044;-85
2021/03/18 00:52:33;;;;;;;2.55;1.70;;;10.10;56.10;;;;;;6280446;28;20094;-82
2021/03/18 00:55:34;;;;;;;2.90;2.05;;;10.10;56.20;;;;;;6281321;28;20159;-82
2021/03/18 00:58:36;;;;;;;3.63;2.13;;;10.10;56.20;;;;;;6288956;28;20086;-84
2021/03/18 01:01:38;;;;;;;3.67;2.00;;;10.10;56.20;;;;;;6299765;28;20120;-82
2021/03/18 01:04:42;;;;;;;3.60;2.15;;;10.10;56.40;;;;;;6300225;28;20055;-82
2021/03/18 01:07:44;;;;;;;3.83;2.15;;;10.10;57.00;;;;;;6292462;28;20036;-82
2021/03/18 01:10:49;;;;;;;3.53;2.20;;;10.10;56.50;;;;;;6295791;28;20041;-82
2021/03/18 01:13:59;;;;;;;2.25;1.70;;;10.10;56.40;;;;;;6281495;28;20037;-83
2021/03/18 01:17:00;;;;;;;5.07;2.22;;;10.00;56.30;;;;;;6279394;28;20044;-84
2021/03/18 01:20:02;;;;;;;4.53;2.15;;;10.00;56.30;;;;;;6285759;28;20032;-85
2021/03/18 01:23:03;;;;;;;3.45;2.00;;;10.10;56.20;;;;;;6294398;28;20052;-82
2021/03/18 01:26:05;;;;;;;4.10;2.22;;;10.10;56.30;;;;;;6273584;28;20132;-83
2021/03/18 01:29:07;;;;;;;3.28;2.03;;;10.00;56.30;;;;;;6274681;28;20442;-82
2021/03/18 01:32:09;;;;;;;4.05;2.17;;;10.00;56.30;;;;;;6296313;28;20378;-82
2021/03/18 01:35:15;;;;;;;3.97;2.13;;;10.00;56.40;;;;;;6298007;28;20481;-82
2021/03/18 01:38:16;;;;;;;2.70;1.50;;;10.10;56.50;;;;;;6298199;28;20458;-82
2021/03/18 01:41:19;;;;;;;3.53;1.95;;;10.00;56.40;;;;;;6281588;28;20063;-83
2021/03/18 01:44:20;;;;;;;3.30;2.22;;;10.00;56.30;;;;;;6297757;28;20036;-82
2021/03/18 01:47:21;;;;;;;2.35;1.67;;;10.10;56.30;;;;;;6296170;28;20028;-83
2021/03/18 01:50:30;;;;;;;3.00;1.95;;;10.10;56.30;;;;;;6259394;28;20036;-83
2021/03/18 01:53:32;;;;;;;3.13;1.95;;;10.10;56.40;;;;;;6291069;28;20249;-83
2021/03/18 01:56:33;;;;;;;3.05;1.90;;;10.10;56.50;;;;;;6275776;28;20124;-83
2021/03/18 01:59:34;;;;;;;3.38;2.08;;;10.00;56.50;;;;;;6279129;28;20035;-83
2021/03/18 02:02:36;;;;;;;3.40;1.95;;;10.10;56.50;;;;;;6254049;28;20044;-83
2021/03/18 02:05:38;;;;;;;2.22;1.58;;;10.00;56.60;;;;;;6275370;28;20127;-82
2021/03/18 02:08:39;;;;;;;3.58;1.83;;;10.00;56.60;;;;;;6278995;28;20040;-84
2021/03/18 02:11:40;;;;;;;2.38;1.55;;;9.90;56.70;;;;;;6278655;28;20043;-82
2021/03/18 02:14:42;;;;;;;2.85;1.90;;;9.90;56.80;;;;;;6296154;28;20041;-83
2021/03/18 02:17:43;;;;;;;2.35;1.58;;;9.90;56.90;;;;;;6287483;28;20036;-82
2021/03/18 02:21:03;;;;;;;2.22;1.67;;;9.90;56.90;;;;;;6275988;28;20524;-84
2021/03/18 02:24:41;;;;;;;1.75;1.40;;;9.90;57.00;;;;;;6282914;28;20056;-83
2021/03/18 02:28:07;;;;;;;6.32;1.90;;;9.90;57.00;;;;;;6272900;28;20037;-83
2021/03/18 02:31:15;;;;;;;2.50;1.42;;;9.80;56.90;;;;;;6288629;28;20049;-82
2021/03/18 02:34:28;;;;;;;2.92;1.42;;;9.80;57.00;;;;;;6277234;28;20091;-82
2021/03/18 02:37:32;;;;;;;3.65;1.70;;;9.80;57.10;;;;;;6266145;28;20052;-82
2021/03/18 02:40:42;;;;;;;2.00;1.27;;;9.80;57.10;;;;;;6286668;28;20127;-81
2021/03/18 02:43:50;;;;;;;3.67;1.30;;;9.80;57.10;;;;;;6291261;28;20044;-81
2021/03/18 02:47:03;;;;;;;4.60;1.25;;;9.70;57.10;;;;;;6292798;28;20040;-82
2021/03/18 02:50:06;;;;;;;1.67;1.23;;;9.70;57.00;;;;;;6305668;28;20032;-82
2021/03/18 02:53:09;;;;;;;1.17;1.05;;;9.80;57.10;;;;;;6301391;28;20523;-82
2021/03/18 02:56:12;;;;;;;2.53;1.70;;;9.80;57.10;;;;;;6273359;28;20094;-82
2021/03/18 02:59:19;;;;;;;1.85;1.35;;;9.70;57.00;;;;;;6274749;28;20047;-83
2021/03/18 03:02:24;;;;;;;2.75;1.98;;;9.70;57.10;;;;;;6275777;28;20036;-81
2021/03/18 03:05:26;;;;;;;1.65;1.13;;;9.70;57.10;;;;;;6296095;28;20037;-82
2021/03/18 03:08:28;;;;;;;2.28;1.25;;;9.70;57.20;;;;;;6297183;28;20115;-83
2021/03/18 03:11:32;;;;;;;2.10;1.40;;;9.70;57.30;;;;;;6274357;28;20041;-83
2021/03/18 03:14:34;;;;;;;1.63;1.50;;;9.60;57.40;;;;;;6274269;28;20037;-82
2021/03/18 03:17:36;;;;;;;2.97;1.63;;;9.60;57.50;;;;;;6280742;28;20455;-82
2021/03/18 03:20:38;;;;;;;2.33;1.58;;;9.60;57.60;;;;;;6274787;28;20127;-83
2021/03/18 03:23:40;;;;;;;1.48;1.05;;;9.60;57.60;;;;;;6257143;28;20033;-82
2021/03/18 03:26:42;;;;;;;2.65;1.50;;;9.60;57.80;;;;;;6264743;28;20045;-82
2021/03/18 03:29:45;;;;;;;3.45;1.80;;;9.60;57.80;;;;;;6274449;28;20037;-83
2021/03/18 03:32:47;;;;;;;1.77;1.20;;;9.60;57.80;;;;;;6278921;28;20040;-83
2021/03/18 03:35:48;;;;;;;1.90;1.55;;;9.60;57.90;;;;;;6272970;28;20033;-82
2021/03/18 03:38:50;;;;;;;2.08;1.50;;;9.50;57.90;;;;;;6251621;28;20040;-83
2021/03/18 03:41:51;;;;;;;2.40;1.40;;;9.50;57.90;;;;;;6297069;28;20036;-83
2021/03/18 03:44:52;;;;;;;2.13;1.55;;;9.40;58.00;;;;;;6296466;28;20079;-83
2021/03/18 03:47:53;;;;;;;2.75;1.42;;;9.40;58.30;;;;;;6296296;28;20029;-83
2021/03/18 03:50:55;;;;;;;2.67;1.88;;;9.40;58.50;;;;;;6272179;28;20041;-82
2021/03/18 03:54:01;;;;;;;2.00;1.35;;;9.30;58.60;;;;;;6272078;28;20037;-84
2021/03/18 03:57:14;;;;;;;2.33;1.58;;;9.30;58.60;;;;;;6273464;28;20029;-84
2021/03/18 04:00:16;;;;;;;2.03;1.40;;;9.30;58.60;;;;;;6272521;28;20033;-83
2021/03/18 04:03:18;;;;;;;1.55;1.40;;;9.30;58.60;;;;;;6272608;28;20032;-83
2021/03/18 04:06:21;;;;;;;3.03;1.90;;;9.30;58.50;;;;;;6247919;28;20047;-82
2021/03/18 04:09:23;;;;;;;2.25;1.70;;;9.40;58.50;;;;;;6264914;28;20045;-83
2021/03/18 04:12:30;;;;;;;2.85;2.28;;;9.30;58.40;;;;;;6271414;28;20405;-83
2021/03/18 04:15:34;;;;;;;2.80;2.20;;;9.30;58.40;;;;;;6276707;28;20036;-83
2021/03/18 04:18:40;;;;;;;4.10;2.45;;;9.30;58.40;;;;;;6278873;28;20041;-83
2021/03/18 04:21:45;;;;;;;3.10;2.28;;;9.30;58.50;;;;;;6301364;28;20113;-83
2021/03/18 04:24:48;;;;;;;3.58;2.70;;;9.30;58.50;;;;;;6283522;28;20082;-83
2021/03/18 04:27:51;;;;;;;2.95;2.60;;;9.20;58.40;;;;;;6278451;28;20502;-83
2021/03/18 04:30:52;;;;;;;3.45;2.55;;;9.20;58.30;;;;;;6271943;28;20044;-83
2021/03/18 04:33:54;;;;;;;6.05;2.28;;;9.20;58.20;;;;;;6302851;28;20052;-83
2021/03/18 04:36:57;;;;;;;3.55;2.35;;;9.20;58.30;;;;;;6301923;28;20033;-83
2021/03/18 04:39:58;;;;;;;5.28;2.53;;;9.10;58.40;;;;;;6295732;28;20033;-83
2021/03/18 04:43:01;;;;;;;2.58;2.20;;;9.10;58.50;;;;;;6276735;28;20045;-83
2021/03/18 04:46:06;;;;;;;2.97;2.25;;;9.10;58.60;;;;;;6275813;28;20399;-83
2021/03/18 04:49:09;;;;;;;3.85;2.30;;;9.00;58.60;;;;;;6279660;28;20044;-83
2021/03/18 04:52:18;;;;;;;4.45;2.50;;;9.00;58.60;;;;;;6279401;28;20057;-83
2021/03/18 04:55:20;;;;;;;3.50;2.53;;;9.00;58.70;;;;;;6276049;28;20036;-84
2021/03/18 04:58:22;;;;;;;4.35;2.47;;;9.00;59.30;;;;;;6293016;28;20123;-83
2021/03/18 05:01:27;;;;;;;4.03;2.25;;;8.90;58.90;;;;;;6277661;28;20029;-83
2021/03/18 05:04:32;;;;;;;3.58;2.45;;;8.80;59.10;;;;;;6276532;28;20059;-84
2021/03/18 05:07:36;;;;;;;2.83;2.30;;;8.70;59.40;;;;;;6251647;28;20048;-83
2021/03/18 05:10:40;;;;;;;3.70;2.45;;;8.70;59.50;;;;;;6275368;28;20098;-83
2021/03/18 05:13:44;;;;;;;2.67;1.58;;;8.70;59.70;;;;;;6275939;28;20412;-83
2021/03/18 05:16:49;;;;;;;4.35;2.85;;;8.60;59.70;;;;;;6276404;28;20102;-83
2021/03/18 05:19:50;;;;;;;5.18;2.45;;;8.60;59.70;;;;;;6258298;28;20041;-83
2021/03/18 05:22:54;;;;;;;5.57;2.40;;;8.50;59.60;;;;;;6274955;28;20036;-82
2021/03/18 05:25:56;;;;;;;3.83;2.35;;;8.50;59.70;;;;;;6282865;28;20060;-83
2021/03/18 05:28:58;;;;;;;3.00;1.98;;;8.60;59.70;;;;;;6301028;28;20499;-84
2021/03/18 05:31:59;;;;;;;2.85;1.88;;;8.50;59.80;;;;;;6300849;28;20035;-83
2021/03/18 05:35:01;;;;;;;6.22;2.65;;;8.50;59.80;;;;;;6300201;28;20033;-83
2021/03/18 05:38:04;;;;;;;3.55;2.55;;;8.50;59.70;;;;;;6277502;28;20025;-82
2021/03/18 05:41:05;;;;;;;3.85;2.75;;;8.50;59.70;;;;;;6255488;28;20037;-84
2021/03/18 05:44:13;;;;;;;5.25;3.10;;;8.40;59.70;;;;;;6264915;28;20494;-82
2021/03/18 05:47:14;;;;;;;4.82;2.90;;;8.40;59.60;;;;;;6257876;28;20052;-82
2021/03/18 05:50:19;;;;;;;4.85;2.67;;;8.40;59.70;;;;;;6273582;28;20032;-81
2021/03/18 05:53:23;;;;;;;4.22;2.65;;;8.40;59.90;;;;;;6293050;28;20044;-85
2021/03/18 05:56:25;;;;;;;3.65;2.80;;;8.30;60.00;;;;;;6266470;28;20387;-85
2021/03/18 05:59:28;;;;;;;5.35;2.90;;;8.30;60.10;;;;;;6295032;28;20442;-84
2021/03/18 06:02:32;;;;;;;6.20;2.83;;;8.30;60.20;;;;;;6289346;28;20062;-83
2021/03/18 06:05:34;;;;;;;8.00;4.13;;;8.30;60.10;;;;;;6277812;28;20055;-83
2021/03/18 06:08:38;;;;;;;6.57;3.70;;;8.30;60.10;;;;;;6286513;28;20466;-84
2021/03/18 06:11:39;;;;;;;5.18;3.22;;;8.30;60.00;;;;;;6304569;28;20041;-85
2021/03/18 06:14:40;;;;;;;5.85;3.20;;;8.30;60.00;;;;;;6282176;28;20112;-84
2021/03/18 06:17:42;;;;;;;5.90;3.53;;;8.30;59.90;;;;;;6326381;28;20083;-88
2021/03/18 06:20:52;;;;;;;6.32;3.70;;;8.30;59.90;;;;;;6277824;28;20116;-83
2021/03/18 06:24:00;;;;;;;5.25;3.20;;;8.30;59.90;;;;;;6286826;28;20067;-86
2021/03/18 06:27:04;;;;;;;5.35;3.55;;;8.20;59.80;;;;;;6258905;28;20039;-85
2021/03/18 06:30:13;;;;;;;4.32;2.70;;;8.30;59.70;;;;;;6270568;28;20083;-85
2021/03/18 06:33:43;;;;;;;5.35;2.92;;;8.30;59.70;;;;;;6284168;28;20032;-87
2021/03/18 06:36:43;;;;;;;5.55;3.15;;;8.30;59.60;;;;;;6278091;28;20033;-81
2021/03/18 06:39:44;;;;;;;5.38;3.30;;;8.40;59.60;;;;;;6246782;28;20372;-86
2021/03/18 06:43:03;;;;;;;6.07;3.10;;;8.40;59.60;;;;;;6257087;28;20033;-86
2021/03/18 06:46:39;;;;;;;6.15;3.85;;;8.40;59.50;;;;;;6230579;28;20033;-85
2021/03/18 06:49:40;;;;;;;8.02;3.85;;;8.40;59.40;;;;;;6261820;28;20041;-85
2021/03/18 06:52:42;;;;;;;9.45;3.88;;;8.40;59.50;;;;;;6271455;28;20371;-86
2021/03/18 06:55:43;;;;;;;8.30;3.55;;;8.40;59.60;;;;;;6273030;28;20114;-83
2021/03/18 06:58:44;;;;;;;5.95;3.53;;;8.50;59.50;;;;;;6267971;28;20024;-84
2021/03/18 07:02:08;;;;;;;6.82;4.20;;;8.50;59.30;;;;;;6280291;28;20045;-84
2021/03/18 07:05:19;;;;;;;5.22;3.15;;;8.50;59.20;;;;;;6264531;28;20470;-85
2021/03/18 07:08:22;;;;;;;6.28;4.07;;;8.60;59.00;;;;;;6255777;28;20033;-86
2021/03/18 07:11:25;;;;;;;5.82;3.22;;;8.70;58.70;;;;;;6270176;28;20459;-85
2021/03/18 07:14:35;;;;;;;7.32;3.58;;;8.80;59.10;;;;;;6293073;28;20450;-84
2021/03/18 07:17:39;;;;;;;5.72;3.78;;;8.90;58.40;;;;;;6269624;28;20025;-84
2021/03/18 07:20:58;;;;;;;5.47;3.80;;;8.80;58.20;;;;;;6298898;28;20033;-84
2021/03/18 07:24:40;;;;;;;6.47;3.88;;;8.90;58.50;;;;;;6257470;28;20052;-83
2021/03/18 07:27:51;;;;;;;4.80;2.70;;;8.90;58.40;;;;;;6139840;28;20162;-83
2021/03/18 07:30:56;;;;;;;7.97;4.55;;;8.80;58.40;;;;;;6185595;28;20113;-84
2021/03/18 07:34:01;;;;;;;4.25;2.08;;;8.80;58.60;;;;;;6171219;28;20465;-82
2021/03/18 07:37:06;;;;;;;7.07;3.65;;;8.90;58.90;;;;;;6163679;28;20039;-82
2021/03/18 07:40:15;;;;;;;5.70;2.83;;;8.80;58.70;;;;;;6158335;28;20401;-82
2021/03/18 07:43:20;;;;;;;5.43;2.97;;;8.80;58.70;;;;;;6155023;28;20042;-82
2021/03/18 07:50:06;;;;;;;5.72;3.33;;;8.70;58.90;;;;;;6151605;28;20062;-82
2021/03/18 07:53:18;;;;;;;4.05;3.00;;;8.80;58.90;;;;;;6157068;28;20030;-82
2021/03/18 07:56:20;;;;;;;5.72;3.30;;;8.80;58.70;;;;;;6182968;28;20043;-84
2021/03/18 07:59:42;;;;;;;5.35;3.33;;;8.90;58.50;;;;;;6164893;28;20454;-82
2021/03/18 08:02:44;;;;;;;6.35;3.38;;;8.90;58.50;;;;;;6172914;28;20129;-82
2021/03/18 08:05:45;;;;;;;7.43;3.50;;;8.90;58.30;;;;;;6275066;28;20074;-82
2021/03/18 08:08:47;;;;;;;10.82;6.20;;;8.90;58.10;;;;;;6286851;28;20032;-82
2021/03/18 08:11:49;;;;;;;25.85;10.68;;;9.00;57.80;;;;;;6261501;28;20053;-82
2021/03/18 08:15:20;;;;;;;4.10;2.75;;;9.10;57.80;;;;;;6285567;28;20033;-83
2021/03/18 08:18:29;;;;;;;5.63;2.88;;;9.20;57.60;;;;;;6254156;28;20036;-82
2021/03/18 08:21:50;;;;;;;6.78;3.45;;;9.30;57.30;;;;;;6272674;28;20041;-84
2021/03/18 08:24:53;;;;;;;5.57;3.85;;;9.30;57.00;;;;;;6264035;28;20452;-83
2021/03/18 08:27:54;;;;;;;6.75;3.63;;;9.30;56.90;;;;;;6289531;28;20033;-82
2021/03/18 08:30:56;;;;;;;5.50;3.58;;;9.30;57.00;;;;;;6251692;28;20029;-83
2021/03/18 08:34:04;;;;;;;6.25;3.55;;;9.40;57.00;;;;;;6298153;28;20040;-83
2021/03/18 08:37:06;;;;;;;6.30;3.75;;;9.50;57.00;;;;;;6293064;28;20041;-82
2021/03/18 08:40:19;;;;;;;6.80;3.97;;;9.50;56.80;;;;;;6284724;28;20029;-81
2021/03/18 08:48:20;;;;;;;10.60;4.47;;;9.50;57.20;;;;;;6287557;28;20040;-82
2021/03/18 08:51:40;;;;;;;6.53;3.75;;;9.50;57.30;;;;;;6279452;28;20380;-81
2021/03/18 08:54:43;;;;;;;6.38;3.58;;;9.70;57.30;;;;;;6267880;28;20115;-82
2021/03/18 08:57:44;;;;;;;7.72;4.40;;;9.70;57.00;;;;;;6282451;28;20036;-81
2021/03/18 09:00:47;;;;;;;7.13;3.72;;;9.80;56.90;;;;;;6280993;28;20413;-81
2021/03/18 09:03:56;;;;;;;5.88;3.15;;;9.80;56.90;;;;;;6288950;28;20052;-81
2021/03/18 09:07:03;;;;;;;5.70;3.50;;;9.90;56.80;;;;;;6244149;28;20047;-83
2021/03/18 09:10:14;;;;;;;6.43;3.35;;;10.00;56.60;;;;;;6275680;28;20036;-82
2021/03/18 09:13:17;;;;;;;7.07;3.15;;;10.00;56.30;;;;;;6262321;28;20041;-83
2021/03/18 09:16:20;;;;;;;6.05;3.40;;;9.90;56.30;;;;;;6299622;28;20394;-81
2021/03/18 09:19:27;;;;;;;7.30;4.70;;;10.00;56.30;;;;;;6280430;28;20056;-82
2021/03/18 09:22:29;;;;;;;5.80;3.40;;;10.00;56.30;;;;;;6253247;28;20056;-82
2021/03/18 09:25:30;;;;;;;7.70;3.95;;;9.90;55.90;;;;;;6260026;28;20040;-82
2021/03/18 09:28:43;;;;;;;5.15;3.40;;;10.00;56.10;;;;;;6282858;28;20181;-83
2021/03/18 09:31:44;;;;;;;5.85;3.03;;;10.00;56.00;;;;;;6299376;28;20152;-82
2021/03/18 09:34:46;;;;;;;5.28;3.40;;;10.00;56.00;;;;;;6279774;28;20033;-82
2021/03/18 09:37:48;;;;;;;6.20;3.85;;;10.00;56.00;;;;;;6282431;28;20036;-82
2021/03/18 09:40:50;;;;;;;7.80;4.30;;;10.00;56.00;;;;;;6288020;28;20059;-82
2021/03/18 09:44:08;;;;;;;6.22;4.38;;;10.00;55.80;;;;;;6300830;28;20037;-84
2021/03/18 09:47:10;;;;;;;9.15;3.88;;;10.00;55.80;;;;;;6278944;28;20087;-84
2021/03/18 09:50:12;;;;;;;6.75;3.97;;;10.00;55.60;;;;;;6297340;28;20044;-82
2021/03/18 09:53:13;;;;;;;6.95;3.70;;;10.10;55.50;;;;;;6264359;28;20045;-84
2021/03/18 09:56:15;;;;;;;5.78;3.75;;;10.10;55.10;;;;;;6277178;28;20044;-83
2021/03/18 09:59:16;;;;;;;8.55;4.63;;;10.10;55.00;;;;;;6266078;28;20045;-83
2021/03/18 10:02:24;;;;;;;6.43;3.70;;;10.20;55.00;;;;;;6271777;28;20084;-82
2021/03/18 10:05:26;;;;;;;6.40;3.85;;;10.20;55.00;;;;;;6274444;28;20057;-81
2021/03/18 10:08:28;;;;;;;19.73;10.80;;;10.30;54.40;;;;;;6283043;28;20036;-84
2021/03/18 10:12:12;;;;;;;9.65;5.00;;;10.30;54.30;;;;;;6263914;28;20103;-85
2021/03/18 10:15:14;;;;;;;9.43;4.47;;;10.40;54.30;;;;;;6249784;28;20036;-82
2021/03/18 10:18:19;;;;;;;8.55;4.43;;;10.40;54.00;;;;;;6290747;28;21470;-84
2021/03/18 10:21:20;;;;;;;11.82;4.55;;;10.30;53.80;;;;;;6259616;28;20037;-82
2021/03/18 10:24:21;;;;;;;9.15;4.80;;;10.30;54.00;;;;;;6273909;28;20040;-83
2021/03/18 10:27:22;;;;;;;8.50;4.53;;;10.30;53.90;;;;;;6289508;28;20070;-83
2021/03/18 10:30:25;;;;;;;10.32;4.78;;;10.30;54.00;;;;;;6276324;28;20047;-82
2021/03/18 10:33:27;;;;;;;7.75;4.35;;;10.30;54.10;;;;;;6272042;28;20049;-83
2021/03/18 10:36:35;;;;;;;10.05;4.57;;;10.40;54.00;;;;;;6294434;28;20113;-83
2021/03/18 10:39:36;;;;;;;5.45;4.10;;;10.40;53.70;;;;;;6278753;28;20029;-83
2021/03/18 10:42:38;;;;;;;10.20;5.10;;;10.40;53.60;;;;;;6277821;28;20512;-83
2021/03/18 10:45:45;;;;;;;9.10;4.78;;;10.50;53.40;;;;;;6297275;28;20135;-83
2021/03/18 10:48:49;;;;;;;10.10;5.70;;;10.60;53.60;;;;;;6278351;28;20029;-82
2021/03/18 10:51:53;;;;;;;6.05;3.75;;;10.70;53.50;;;;;;6286922;28;20037;-82
2021/03/18 10:54:59;;;;;;;7.97;4.15;;;10.80;53.40;;;;;;6281818;28;20041;-82
2021/03/18 10:58:02;;;;;;;11.55;4.93;;;11.00;54.00;;;;;;6282558;28;20036;-84
2021/03/18 11:01:12;;;;;;;9.18;4.80;;;11.10;53.50;;;;;;6292816;28;20327;-82
2021/03/18 11:04:14;;;;;;;10.20;5.00;;;11.30;52.20;;;;;;6286730;28;20052;-83
2021/03/18 11:07:15;;;;;;;9.25;4.63;;;11.50;51.90;;;;;;6276117;28;20037;-83
2021/03/18 11:10:16;;;;;;;7.65;4.32;;;11.70;51.40;;;;;;6286357;28;20044;-82
2021/03/18 11:13:24;;;;;;;14.93;5.40;;;11.90;50.80;;;;;;6277096;28;20116;-81
2021/03/18 11:16:25;;;;;;;7.43;4.25;;;12.20;50.50;;;;;;6272753;28;20088;-82
2021/03/18 11:19:26;;;;;;;10.27;5.00;;;12.40;50.00;;;;;;6275808;28;20089;-82
2021/03/18 11:22:27;;;;;;;7.90;5.07;;;12.60;49.30;;;;;;6274992;28;20044;-81
2021/03/18 11:25:29;;;;;;;11.68;4.65;;;12.70;48.90;;;;;;6280715;28;20356;-84
2021/03/18 11:28:31;;;;;;;8.02;5.00;;;12.70;48.70;;;;;;6290700;28;20037;-84
2021/03/18 11:31:35;;;;;;;8.35;4.80;;;12.70;48.50;;;;;;6282318;28;20435;-82
2021/03/18 11:34:38;;;;;;;7.47;4.03;;;12.60;48.20;;;;;;6297851;28;20047;-81
2021/03/18 11:37:39;;;;;;;10.63;4.72;;;12.50;48.20;;;;;;6295464;28;20119;-81
2021/03/18 11:40:42;;;;;;;9.98;4.88;;;12.50;47.90;;;;;;6286001;28;20033;-79
2021/03/18 11:43:45;;;;;;;5.97;3.92;;;12.50;47.90;;;;;;6274892;28;20178;-80
2021/03/18 11:46:46;;;;;;;5.78;3.70;;;12.80;47.90;;;;;;6277065;28;20065;-82
2021/03/18 11:49:47;;;;;;;11.75;3.65;;;13.10;46.50;;;;;;6267353;28;20436;-82
2021/03/18 11:52:49;;;;;;;6.57;4.10;;;13.10;45.80;;;;;;6276307;28;20064;-80
2021/03/18 11:55:50;;;;;;;5.60;3.25;;;13.00;45.80;;;;;;6272723;28;20037;-82
2021/03/18 11:58:52;;;;;;;7.78;3.65;;;13.00;46.00;;;;;;6273018;28;20055;-82
2021/03/18 12:01:53;;;;;;;6.70;4.47;;;13.20;45.60;;;;;;6268765;28;20056;-81
2021/03/18 12:04:54;;;;;;;5.80;3.88;;;13.40;45.10;;;;;;6298250;28;20127;-82
2021/03/18 12:07:56;;;;;;;6.03;3.80;;;13.60;44.80;;;;;;6263170;28;20070;-82
2021/03/18 12:10:57;;;;;;;6.63;3.97;;;13.50;44.60;;;;;;6278649;28;20044;-84
2021/03/18 12:13:58;;;;;;;7.63;3.40;;;13.30;44.90;;;;;;6283985;28;20107;-84
2021/03/18 12:16:59;;;;;;;7.53;3.58;;;13.30;45.00;;;;;;6274077;28;20041;-83
2021/03/18 12:20:01;;;;;;;6.05;3.70;;;13.40;44.90;;;;;;6263161;28;20463;-82
2021/03/18 12:23:03;;;;;;;9.30;5.13;;;13.40;44.80;;;;;;6276554;28;20131;-89
2021/03/18 12:26:05;;;;;;;7.57;4.10;;;13.50;44.70;;;;;;6259488;28;20045;-88
2021/03/18 12:29:06;;;;;;;5.72;3.67;;;14.10;44.40;;;;;;6264527;28;20025;-86
2021/03/18 12:32:06;;;;;;;7.47;4.18;;;14.60;42.70;;;;;;6275800;28;20057;-81
2021/03/18 12:35:10;;;;;;;9.50;4.10;;;15.20;41.60;;;;;;6290304;28;20029;-78
2021/03/18 12:38:11;;;;;;;9.27;3.90;;;16.10;40.00;;;;;;6300960;28;20032;-78
2021/03/18 12:41:12;;;;;;;7.45;3.28;;;17.10;37.60;;;;;;6300308;28;20477;-78
2021/03/18 12:44:12;;;;;;;5.05;2.72;;;17.90;36.60;;;;;;6291598;28;20033;-79
2021/03/18 12:47:13;;;;;;;3.53;2.45;;;18.10;35.30;;;;;;6283385;28;20032;-78
2021/03/18 12:50:19;;;;;;;3.17;2.00;;;17.90;35.20;;;;;;6301731;28;20029;-78
2021/03/18 12:53:20;;;;;;;6.65;2.03;;;17.70;35.80;;;;;;6288076;28;20420;-79
2021/03/18 12:56:21;;;;;;;3.13;2.13;;;17.00;36.50;;;;;;6284275;28;20040;-79
2021/03/18 12:59:22;;;;;;;4.38;2.78;;;16.20;38.30;;;;;;6294768;28;20086;-78
2021/03/18 13:02:23;;;;;;;3.40;2.70;;;15.40;39.90;;;;;;6283893;28;20521;-81
2021/03/18 13:05:24;;;;;;;4.18;2.65;;;14.70;41.40;;;;;;6299733;28;20078;-78
2021/03/18 13:08:25;;;;;;;4.70;2.35;;;14.10;42.70;;;;;;6299757;28;20078;-78
2021/03/18 13:11:26;;;;;;;2.47;1.52;;;13.70;43.60;;;;;;6299932;28;20050;-79
2021/03/18 13:14:27;;;;;;;4.30;2.63;;;13.30;44.30;;;;;;6300573;28;20036;-79
2021/03/18 13:17:28;;;;;;;4.05;2.40;;;13.00;45.10;;;;;;6295152;28;20037;-78
2021/03/18 13:20:29;;;;;;;7.07;2.80;;;12.70;45.60;;;;;;6284674;28;20088;-80
2021/03/18 13:23:31;;;;;;;4.68;2.70;;;12.60;46.10;;;;;;6295917;28;20043;-80
2021/03/18 13:26:33;;;;;;;5.68;2.60;;;12.60;46.30;;;;;;6267335;28;20053;-80
2021/03/18 13:29:34;;;;;;;6.53;2.83;;;12.50;46.20;;;;;;6299816;28;20048;-77
2021/03/18 13:32:36;;;;;;;4.85;3.15;;;12.60;46.00;;;;;;6276311;28;20041;-78
2021/03/18 13:35:40;;;;;;;4.50;2.67;;;12.60;45.90;;;;;;6275688;28;20044;-78
2021/03/18 13:38:42;;;;;;;4.72;2.58;;;12.60;45.80;;;;;;6299393;28;20064;-78
2021/03/18 13:41:43;;;;;;;3.67;2.22;;;12.50;46.00;;;;;;6300646;28;20029;-79
2021/03/18 13:44:45;;;;;;;8.77;2.63;;;12.40;46.40;;;;;;6283017;28;20425;-77
2021/03/18 13:47:48;;;;;;;4.25;2.63;;;12.20;46.70;;;;;;6281456;28;20028;-81
2021/03/18 13:50:54;;;;;;;4.78;2.80;;;12.20;47.20;;;;;;6282376;28;20033;-81
2021/03/18 13:53:55;;;;;;;4.05;2.30;;;12.10;47.50;;;;;;6273909;28;20041;-83
2021/03/18 13:56:56;;;;;;;9.65;2.55;;;12.00;47.90;;;;;;6273787;28;20420;-79
2021/03/18 13:59:58;;;;;;;2.65;1.67;;;11.80;48.30;;;;;;6272854;28;20030;-82
2021/03/18 14:03:00;;;;;;;3.38;2.00;;;11.60;48.60;;;;;;6265412;28;20366;-81
2021/03/18 14:06:01;;;;;;;3.33;2.33;;;11.30;49.60;;;;;;6285662;28;20166;-81
2021/03/18 14:09:03;;;;;;;6.70;3.60;;;11.10;50.40;;;;;;6274739;28;20098;-80
2021/03/18 14:12:06;;;;;;;9.88;2.97;;;10.90;50.70;;;;;;6287540;28;20467;-79
2021/03/18 14:15:11;;;;;;;3.90;2.72;;;10.80;51.30;;;;;;6256043;28;20033;-80
2021/03/18 14:18:14;;;;;;;5.38;2.97;;;10.70;51.70;;;;;;6254867;28;20033;-80
2021/03/18 14:21:15;;;;;;;6.00;2.90;;;10.60;52.20;;;;;;6287825;28;20394;-79
2021/03/18 14:24:17;;;;;;;3.83;2.53;;;10.60;52.70;;;;;;6272166;28;20451;-78
2021/03/18 14:27:18;;;;;;;3.80;2.35;;;10.40;52.70;;;;;;6268146;28;20033;-79
2021/03/18 14:30:19;;;;;;;4.38;2.60;;;10.30;52.90;;;;;;6292100;28;20049;-79
2021/03/18 14:33:20;;;;;;;3.85;2.38;;;10.30;53.00;;;;;;6279585;28;20139;-80
2021/03/18 14:36:21;;;;;;;4.93;2.63;;;10.30;53.10;;;;;;6274921;28;20090;-81
2021/03/18 14:39:22;;;;;;;10.23;4.32;;;10.40;53.00;;;;;;6268427;28;20030;-80
2021/03/18 14:42:25;;;;;;;4.18;2.60;;;10.50;52.80;;;;;;6271744;28;20119;-80
2021/03/18 14:45:27;;;;;;;4.45;2.58;;;10.60;52.50;;;;;;6241701;28;20029;-82
2021/03/18 14:48:28;;;;;;;5.38;3.30;;;10.70;52.30;;;;;;6275615;28;20112;-82
2021/03/18 14:51:29;;;;;;;7.00;3.65;;;10.70;52.30;;;;;;6291373;28;20422;-80
2021/03/18 14:54:30;;;;;;;6.90;3.33;;;10.80;52.30;;;;;;6278360;28;20128;-80
2021/03/18 14:57:31;;;;;;;4.55;2.90;;;10.70;52.20;;;;;;6292236;28;20056;-81
2021/03/18 15:00:33;;;;;;;9.52;2.88;;;10.70;52.30;;;;;;6297880;28;20474;-82
2021/03/18 15:03:34;;;;;;;4.78;3.22;;;10.80;52.20;;;;;;6281082;28;20059;-81
2021/03/18 15:06:35;;;;;;;6.63;2.92;;;10.90;52.00;;;;;;6281708;28;20119;-80
2021/03/18 15:09:37;;;;;;;6.13;2.85;;;11.00;51.70;;;;;;6285391;28;20040;-80
2021/03/18 15:12:39;;;;;;;7.30;3.38;;;11.00;51.50;;;;;;6261136;28;20071;-81
2021/03/18 15:15:43;;;;;;;6.13;2.83;;;10.90;51.50;;;;;;6301778;28;20058;-82
2021/03/18 15:18:45;;;;;;;3.45;2.20;;;10.80;51.50;;;;;;6298769;28;20029;-81
2021/03/18 15:21:46;;;;;;;4.85;2.72;;;10.80;51.70;;;;;;6276720;28;20119;-81
2021/03/18 15:24:47;;;;;;;12.02;3.28;;;10.80;52.40;;;;;;6281193;28;20108;-81
2021/03/18 15:27:48;;;;;;;3.47;1.95;;;10.70;52.70;;;;;;6270169;28;20089;-80
2021/03/18 15:30:51;;;;;;;6.90;2.15;;;10.60;52.80;;;;;;6299432;28;20040;-82
2021/03/18 15:33:52;;;;;;;4.20;2.80;;;10.40;53.00;;;;;;6282652;28;20036;-80
2021/03/18 15:36:53;;;;;;;2.92;1.92;;;10.20;52.80;;;;;;6274625;28;20517;-83
2021/03/18 15:39:54;;;;;;;7.18;2.88;;;10.00;53.40;;;;;;6288199;28;20115;-82
2021/03/18 15:42:56;;;;;;;16.23;3.17;;;9.90;53.80;;;;;;6297827;28;20044;-82
2021/03/18 15:45:58;;;;;;;5.50;2.65;;;9.80;54.20;;;;;;6290500;28;20052;-83
2021/03/18 15:48:59;;;;;;;6.22;2.35;;;9.80;54.40;;;;;;6274811;28;20033;-84
2021/03/18 15:52:00;;;;;;;8.43;3.33;;;9.90;54.20;;;;;;6287743;28;20491;-84
2021/03/18 15:55:01;;;;;;;7.93;3.20;;;9.90;54.00;;;;;;6275829;28;20073;-85
2021/03/18 15:58:06;;;;;;;4.80;2.83;;;9.90;53.80;;;;;;6287889;28;20032;-85
2021/03/18 16:01:08;;;;;;;8.30;2.63;;;10.00;53.40;;;;;;6287841;28;20029;-85
2021/03/18 16:04:09;;;;;;;7.50;2.88;;;10.00;53.10;;;;;;6284015;28;20090;-84
2021/03/18 16:07:11;;;;;;;4.25;2.45;;;10.10;52.90;;;;;;6282962;28;20199;-84
2021/03/18 16:10:13;;;;;;;5.05;2.88;;;10.20;52.70;;;;;;6286536;28;20037;-85